sensor_id;sensor_type;location;lat;lon;timestamp;pressure;altitude;pressure_sealevel;temperature;humidity
35952;BME280;22035;51.406;16.194;2022-12-16T00:01:05;99476.29;;;21.39;17.14
35952;BME280;22035;51.406;16.194;2022-12-16T00:03:30;99467.68;;;21.37;17.15
35952;BME280;22035;51.406;16.194;2022-12-16T00:05:56;99470.51;;;21.40;17.13
35952;BME280;22035;51.406;16.194;2022-12-16T00:08:22;99474.81;;;21.39;17.15
35952;BME280;22035;51.406;16.194;2022-12-16T00:10:47;99475.81;;;21.39;17.14
35952;BME280;22035;51.406;16.194;2022-12-16T00:13:13;99468.86;;;21.35;17.16
35952;BME280;22035;51.406;16.194;2022-12-16T00:15:38;99467.43;;;21.38;17.15
35952;BME280;22035;51.406;16.194;2022-12-16T00:18:04;99467.17;;;21.40;17.13
35952;BME280;22035;51.406;16.194;2022-12-16T00:20:30;99467.66;;;21.37;17.16
35952;BME280;22035;51.406;16.194;2022-12-16T00:22:55;99474.40;;;21.33;17.20
35952;BME280;22035;51.406;16.194;2022-12-16T00:25:21;99471.64;;;21.35;17.17
35952;BME280;22035;51.406;16.194;2022-12-16T00:27:47;99466.92;;;21.36;17.17
35952;BME280;22035;51.406;16.194;2022-12-16T00:30:13;99461.15;;;21.37;17.16
35952;BME280;22035;51.406;16.194;2022-12-16T00:32:38;99444.80;;;21.34;17.18
35952;BME280;22035;51.406;16.194;2022-12-16T00:35:05;99439.64;;;21.36;17.17
35952;BME280;22035;51.406;16.194;2022-12-16T00:37:30;99440.06;;;21.34;17.18
35952;BME280;22035;51.406;16.194;2022-12-16T00:39:56;99440.01;;;21.37;17.17
35952;BME280;22035;51.406;16.194;2022-12-16T00:42:21;99441.78;;;21.36;17.17
35952;BME280;22035;51.406;16.194;2022-12-16T00:44:47;99440.03;;;21.33;17.19
35952;BME280;22035;51.406;16.194;2022-12-16T00:47:13;99433.28;;;21.35;17.18
35952;BME280;22035;51.406;16.194;2022-12-16T00:49:38;99436.47;;;21.38;17.15
35952;BME280;22035;51.406;16.194;2022-12-16T00:52:04;99436.25;;;21.37;17.16
35952;BME280;22035;51.406;16.194;2022-12-16T00:54:29;99440.94;;;21.38;17.14
35952;BME280;22035;51.406;16.194;2022-12-16T00:56:55;99443.90;;;21.36;17.17
35952;BME280;22035;51.406;16.194;2022-12-16T00:59:20;99439.64;;;21.37;17.17
35952;BME280;22035;51.406;16.194;2022-12-16T01:01:46;99439.10;;;21.36;17.16
35952;BME280;22035;51.406;16.194;2022-12-16T01:04:12;99434.20;;;21.39;17.15
35952;BME280;22035;51.406;16.194;2022-12-16T01:06:37;99434.09;;;21.38;17.16
35952;BME280;22035;51.406;16.194;2022-12-16T01:09:03;99436.63;;;21.38;17.16
35952;BME280;22035;51.406;16.194;2022-12-16T01:11:29;99436.40;;;21.36;17.17
35952;BME280;22035;51.406;16.194;2022-12-16T01:13:54;99435.88;;;21.38;17.16
35952;BME280;22035;51.406;16.194;2022-12-16T01:16:20;99430.53;;;21.33;17.20
35952;BME280;22035;51.406;16.194;2022-12-16T01:18:46;99429.45;;;21.39;17.13
35952;BME280;22035;51.406;16.194;2022-12-16T01:21:13;99432.67;;;21.38;17.16
35952;BME280;22035;51.406;16.194;2022-12-16T01:23:39;99431.76;;;21.35;17.18
35952;BME280;22035;51.406;16.194;2022-12-16T01:26:05;99428.60;;;21.36;17.17
35952;BME280;22035;51.406;16.194;2022-12-16T01:28:30;99427.52;;;21.37;17.17
35952;BME280;22035;51.406;16.194;2022-12-16T01:30:57;99424.84;;;21.37;17.16
35952;BME280;22035;51.406;16.194;2022-12-16T01:33:23;99419.11;;;21.38;17.15
35952;BME280;22035;51.406;16.194;2022-12-16T01:35:49;99414.21;;;21.37;17.15
35952;BME280;22035;51.406;16.194;2022-12-16T01:38:14;99415.24;;;21.38;17.16
35952;BME280;22035;51.406;16.194;2022-12-16T01:40:40;99419.03;;;21.38;17.17
35952;BME280;22035;51.406;16.194;2022-12-16T01:43:09;99427.94;;;21.36;17.18
35952;BME280;22035;51.406;16.194;2022-12-16T01:45:36;99422.91;;;21.35;17.21
35952;BME280;22035;51.406;16.194;2022-12-16T01:48:12;99425.94;;;21.35;17.20
35952;BME280;22035;51.406;16.194;2022-12-16T01:50:43;99423.58;;;21.38;17.16
35952;BME280;22035;51.406;16.194;2022-12-16T01:53:08;99425.28;;;21.39;17.17
35952;BME280;22035;51.406;16.194;2022-12-16T01:55:38;99425.46;;;21.36;17.19
35952;BME280;22035;51.406;16.194;2022-12-16T01:58:08;99424.72;;;21.35;17.28
35952;BME280;22035;51.406;16.194;2022-12-16T02:00:35;99432.62;;;21.39;17.17
35952;BME280;22035;51.406;16.194;2022-12-16T02:03:02;99431.11;;;21.37;17.18
35952;BME280;22035;51.406;16.194;2022-12-16T02:05:28;99430.45;;;21.37;17.19
35952;BME280;22035;51.406;16.194;2022-12-16T02:07:58;99429.82;;;21.36;17.21
35952;BME280;22035;51.406;16.194;2022-12-16T02:10:32;99431.27;;;21.38;17.18
35952;BME280;22035;51.406;16.194;2022-12-16T02:13:03;99430.91;;;21.41;17.13
35952;BME280;22035;51.406;16.194;2022-12-16T02:15:37;99426.34;;;21.34;17.22
35952;BME280;22035;51.406;16.194;2022-12-16T02:18:11;99415.67;;;21.37;17.20
35952;BME280;22035;51.406;16.194;2022-12-16T02:21:22;99407.04;;;21.39;17.16
35952;BME280;22035;51.406;16.194;2022-12-16T02:24:04;99400.75;;;21.39;17.18
35952;BME280;22035;51.406;16.194;2022-12-16T02:26:52;99397.60;;;21.36;17.19
35952;BME280;22035;51.406;16.194;2022-12-16T02:29:42;99393.52;;;21.38;17.20
35952;BME280;22035;51.406;16.194;2022-12-16T02:32:21;99390.19;;;21.35;17.22
35952;BME280;22035;51.406;16.194;2022-12-16T02:34:56;99390.18;;;21.34;17.23
35952;BME280;22035;51.406;16.194;2022-12-16T02:37:32;99387.18;;;21.37;17.20
35952;BME280;22035;51.406;16.194;2022-12-16T02:40:07;99385.56;;;21.37;17.20
35952;BME280;22035;51.406;16.194;2022-12-16T02:42:41;99382.54;;;21.37;17.20
35952;BME280;22035;51.406;16.194;2022-12-16T02:45:11;99377.17;;;21.33;17.24
35952;BME280;22035;51.406;16.194;2022-12-16T02:47:39;99380.02;;;21.39;17.19
35952;BME280;22035;51.406;16.194;2022-12-16T02:50:16;99381.65;;;21.39;17.19
35952;BME280;22035;51.406;16.194;2022-12-16T02:52:42;99379.01;;;21.36;17.20
35952;BME280;22035;51.406;16.194;2022-12-16T02:55:08;99373.26;;;21.41;17.17
35952;BME280;22035;51.406;16.194;2022-12-16T02:57:44;99371.83;;;21.38;17.21
35952;BME280;22035;51.406;16.194;2022-12-16T03:00:16;99369.29;;;21.37;17.21
35952;BME280;22035;51.406;16.194;2022-12-16T03:02:48;99365.35;;;21.37;17.22
35952;BME280;22035;51.406;16.194;2022-12-16T03:05:21;99368.41;;;21.40;17.20
35952;BME280;22035;51.406;16.194;2022-12-16T03:07:50;99366.45;;;21.37;17.23
35952;BME280;22035;51.406;16.194;2022-12-16T03:10:20;99365.99;;;21.36;17.24
35952;BME280;22035;51.406;16.194;2022-12-16T03:12:46;99360.28;;;21.41;17.18
35952;BME280;22035;51.406;16.194;2022-12-16T03:15:14;99361.94;;;21.38;17.21
35952;BME280;22035;51.406;16.194;2022-12-16T03:17:42;99362.12;;;21.38;17.22
35952;BME280;22035;51.406;16.194;2022-12-16T03:20:13;99356.22;;;21.37;17.22
35952;BME280;22035;51.406;16.194;2022-12-16T03:22:43;99360.07;;;21.41;17.19
35952;BME280;22035;51.406;16.194;2022-12-16T03:25:10;99358.23;;;21.40;17.21
35952;BME280;22035;51.406;16.194;2022-12-16T03:27:43;99359.93;;;21.37;17.23
35952;BME280;22035;51.406;16.194;2022-12-16T03:30:14;99361.61;;;21.46;17.16
35952;BME280;22035;51.406;16.194;2022-12-16T03:32:45;99367.34;;;21.43;17.18
35952;BME280;22035;51.406;16.194;2022-12-16T03:35:17;99368.22;;;21.41;17.20
35952;BME280;22035;51.406;16.194;2022-12-16T03:37:45;99371.02;;;21.45;17.17
35952;BME280;22035;51.406;16.194;2022-12-16T03:40:12;99366.26;;;21.41;17.20
35952;BME280;22035;51.406;16.194;2022-12-16T03:42:40;99362.86;;;21.38;17.23
35952;BME280;22035;51.406;16.194;2022-12-16T03:45:11;99360.12;;;21.38;17.24
35952;BME280;22035;51.406;16.194;2022-12-16T03:47:38;99358.39;;;21.39;17.24
35952;BME280;22035;51.406;16.194;2022-12-16T03:50:04;99353.04;;;21.36;17.26
35952;BME280;22035;51.406;16.194;2022-12-16T03:52:30;99351.33;;;21.41;17.22
35952;BME280;22035;51.406;16.194;2022-12-16T03:54:56;99348.61;;;21.45;17.19
35952;BME280;22035;51.406;16.194;2022-12-16T03:57:21;99343.73;;;21.44;17.19
35952;BME280;22035;51.406;16.194;2022-12-16T03:59:47;99342.45;;;21.42;17.22
35952;BME280;22035;51.406;16.194;2022-12-16T04:02:13;99345.92;;;21.40;17.24
35952;BME280;22035;51.406;16.194;2022-12-16T04:04:38;99354.98;;;21.39;17.24
35952;BME280;22035;51.406;16.194;2022-12-16T04:07:04;99356.93;;;21.36;17.27
35952;BME280;22035;51.406;16.194;2022-12-16T04:09:30;99366.65;;;21.41;17.24
35952;BME280;22035;51.406;16.194;2022-12-16T04:11:55;99368.69;;;21.41;17.24
35952;BME280;22035;51.406;16.194;2022-12-16T04:14:21;99371.02;;;21.43;17.23
35952;BME280;22035;51.406;16.194;2022-12-16T04:16:47;99371.92;;;21.43;17.22
35952;BME280;22035;51.406;16.194;2022-12-16T04:19:19;99369.73;;;21.41;17.25
35952;BME280;22035;51.406;16.194;2022-12-16T04:21:46;99366.90;;;21.42;17.23
35952;BME280;22035;51.406;16.194;2022-12-16T04:24:14;99368.03;;;21.38;17.24
35952;BME280;22035;51.406;16.194;2022-12-16T04:26:41;99369.68;;;21.42;17.24
35952;BME280;22035;51.406;16.194;2022-12-16T04:29:06;99369.50;;;21.39;17.26
35952;BME280;22035;51.406;16.194;2022-12-16T04:31:32;99373.97;;;21.41;17.25
35952;BME280;22035;51.406;16.194;2022-12-16T04:33:57;99375.47;;;21.42;17.24
35952;BME280;22035;51.406;16.194;2022-12-16T04:36:23;99373.10;;;21.39;17.27
35952;BME280;22035;51.406;16.194;2022-12-16T04:38:49;99373.33;;;21.39;17.27
35952;BME280;22035;51.406;16.194;2022-12-16T04:41:15;99376.61;;;21.38;17.28
35952;BME280;22035;51.406;16.194;2022-12-16T04:43:40;99378.81;;;21.44;17.24
35952;BME280;22035;51.406;16.194;2022-12-16T04:46:06;99375.95;;;21.40;17.26
35952;BME280;22035;51.406;16.194;2022-12-16T04:48:31;99374.95;;;21.40;17.27
35952;BME280;22035;51.406;16.194;2022-12-16T04:50:57;99374.80;;;21.41;17.28
35952;BME280;22035;51.406;16.194;2022-12-16T04:53:23;99375.14;;;21.43;17.24
35952;BME280;22035;51.406;16.194;2022-12-16T04:55:49;99370.44;;;21.45;17.23
35952;BME280;22035;51.406;16.194;2022-12-16T04:58:14;99362.71;;;21.41;17.26
35952;BME280;22035;51.406;16.194;2022-12-16T05:00:41;99364.44;;;21.41;17.26
35952;BME280;22035;51.406;16.194;2022-12-16T05:03:07;99366.97;;;21.39;17.29
35952;BME280;22035;51.406;16.194;2022-12-16T05:05:32;99373.01;;;21.42;17.27
35952;BME280;22035;51.406;16.194;2022-12-16T05:07:58;99370.41;;;21.46;17.24
35952;BME280;22035;51.406;16.194;2022-12-16T05:10:23;99367.04;;;21.41;17.27
35952;BME280;22035;51.406;16.194;2022-12-16T05:12:51;99367.70;;;21.41;17.28
35952;BME280;22035;51.406;16.194;2022-12-16T05:15:17;99372.37;;;21.40;17.28
35952;BME280;22035;51.406;16.194;2022-12-16T05:17:43;99374.18;;;21.38;17.28
35952;BME280;22035;51.406;16.194;2022-12-16T05:20:09;99377.16;;;21.43;17.26
35952;BME280;22035;51.406;16.194;2022-12-16T05:22:35;99382.45;;;21.42;17.27
35952;BME280;22035;51.406;16.194;2022-12-16T05:25:01;99384.44;;;21.41;17.29
35952;BME280;22035;51.406;16.194;2022-12-16T05:27:27;99393.33;;;21.39;17.30
35952;BME280;22035;51.406;16.194;2022-12-16T05:29:52;99399.76;;;21.37;17.33
35952;BME280;22035;51.406;16.194;2022-12-16T05:32:18;99406.49;;;21.39;17.31
35952;BME280;22035;51.406;16.194;2022-12-16T05:34:43;99409.32;;;21.43;17.28
35952;BME280;22035;51.406;16.194;2022-12-16T05:37:09;99410.30;;;21.42;17.29
35952;BME280;22035;51.406;16.194;2022-12-16T05:39:35;99415.62;;;21.46;17.24
35952;BME280;22035;51.406;16.194;2022-12-16T05:42:00;99412.00;;;21.41;17.30
35952;BME280;22035;51.406;16.194;2022-12-16T05:44:26;99408.17;;;21.40;17.30
35952;BME280;22035;51.406;16.194;2022-12-16T05:46:51;99409.91;;;21.42;17.30
35952;BME280;22035;51.406;16.194;2022-12-16T05:49:17;99416.03;;;21.42;17.29
35952;BME280;22035;51.406;16.194;2022-12-16T05:51:43;99418.13;;;21.41;17.22
35952;BME280;22035;51.406;16.194;2022-12-16T05:54:08;99417.04;;;21.39;17.32
35952;BME280;22035;51.406;16.194;2022-12-16T05:56:34;99416.23;;;21.39;17.33
35952;BME280;22035;51.406;16.194;2022-12-16T05:58:59;99416.25;;;21.41;17.30
35952;BME280;22035;51.406;16.194;2022-12-16T06:01:25;99417.96;;;21.44;17.29
35952;BME280;22035;51.406;16.194;2022-12-16T06:03:51;99414.12;;;21.41;17.24
35952;BME280;22035;51.406;16.194;2022-12-16T06:06:16;99413.16;;;21.43;17.28
35952;BME280;22035;51.406;16.194;2022-12-16T06:08:42;99417.48;;;21.39;17.33
35952;BME280;22035;51.406;16.194;2022-12-16T06:11:08;99418.85;;;21.44;17.29
35952;BME280;22035;51.406;16.194;2022-12-16T06:13:33;99420.42;;;21.39;17.33
35952;BME280;22035;51.406;16.194;2022-12-16T06:15:59;99421.01;;;21.39;17.33
35952;BME280;22035;51.406;16.194;2022-12-16T06:18:24;99418.10;;;21.40;17.32
35952;BME280;22035;51.406;16.194;2022-12-16T06:20:50;99415.34;;;21.41;17.30
35952;BME280;22035;51.406;16.194;2022-12-16T06:23:16;99415.43;;;21.37;17.35
35952;BME280;22035;51.406;16.194;2022-12-16T06:25:41;99415.01;;;21.38;17.35
35952;BME280;22035;51.406;16.194;2022-12-16T06:28:07;99416.96;;;21.43;17.31
35952;BME280;22035;51.406;16.194;2022-12-16T06:30:33;99418.05;;;21.42;17.31
35952;BME280;22035;51.406;16.194;2022-12-16T06:32:58;99414.19;;;21.40;17.33
35952;BME280;22035;51.406;16.194;2022-12-16T06:35:24;99413.95;;;21.42;17.31
35952;BME280;22035;51.406;16.194;2022-12-16T06:37:50;99413.66;;;21.37;17.36
35952;BME280;22035;51.406;16.194;2022-12-16T06:40:15;99414.61;;;21.38;17.35
35952;BME280;22035;51.406;16.194;2022-12-16T06:42:41;99411.49;;;21.41;17.33
35952;BME280;22035;51.406;16.194;2022-12-16T06:45:07;99411.18;;;21.44;17.31
35952;BME280;22035;51.406;16.194;2022-12-16T06:47:33;99407.24;;;21.39;17.35
35952;BME280;22035;51.406;16.194;2022-12-16T06:49:58;99407.39;;;21.41;17.33
35952;BME280;22035;51.406;16.194;2022-12-16T06:52:24;99409.07;;;21.42;17.32
35952;BME280;22035;51.406;16.194;2022-12-16T06:54:50;99411.14;;;21.39;17.35
35952;BME280;22035;51.406;16.194;2022-12-16T06:57:15;99403.29;;;21.39;17.35
35952;BME280;22035;51.406;16.194;2022-12-16T06:59:41;99399.15;;;21.37;17.36
35952;BME280;22035;51.406;16.194;2022-12-16T07:02:08;99402.52;;;21.41;17.33
35952;BME280;22035;51.406;16.194;2022-12-16T07:04:35;99409.27;;;21.41;17.34
35952;BME280;22035;51.406;16.194;2022-12-16T07:07:00;99412.65;;;21.39;17.35
35952;BME280;22035;51.406;16.194;2022-12-16T07:09:26;99413.92;;;21.42;17.33
35952;BME280;22035;51.406;16.194;2022-12-16T07:11:51;99414.56;;;21.39;17.35
35952;BME280;22035;51.406;16.194;2022-12-16T07:14:17;99415.20;;;21.40;17.34
35952;BME280;22035;51.406;16.194;2022-12-16T07:16:43;99420.20;;;21.39;17.36
35952;BME280;22035;51.406;16.194;2022-12-16T07:19:08;99418.31;;;21.40;17.36
35952;BME280;22035;51.406;16.194;2022-12-16T07:21:34;99414.13;;;21.40;17.34
35952;BME280;22035;51.406;16.194;2022-12-16T07:24:00;99414.06;;;21.39;17.36
35952;BME280;22035;51.406;16.194;2022-12-16T07:26:25;99418.82;;;21.38;17.38
35952;BME280;22035;51.406;16.194;2022-12-16T07:28:52;99418.54;;;21.40;17.36
35952;BME280;22035;51.406;16.194;2022-12-16T07:31:17;99415.90;;;21.35;17.39
35952;BME280;22035;51.406;16.194;2022-12-16T07:33:43;99416.16;;;21.41;17.35
35952;BME280;22035;51.406;16.194;2022-12-16T07:36:09;99419.65;;;21.40;17.35
35952;BME280;22035;51.406;16.194;2022-12-16T07:38:34;99417.83;;;21.38;17.37
35952;BME280;22035;51.406;16.194;2022-12-16T07:41:00;99423.96;;;21.41;17.35
35952;BME280;22035;51.406;16.194;2022-12-16T07:43:26;99426.78;;;21.41;17.35
35952;BME280;22035;51.406;16.194;2022-12-16T07:45:51;99429.45;;;21.39;17.37
35952;BME280;22035;51.406;16.194;2022-12-16T07:48:17;99431.37;;;21.38;17.38
35952;BME280;22035;51.406;16.194;2022-12-16T07:50:42;99434.94;;;21.44;17.35
35952;BME280;22035;51.406;16.194;2022-12-16T07:53:08;99438.52;;;21.42;17.35
35952;BME280;22035;51.406;16.194;2022-12-16T07:55:34;99442.58;;;21.41;17.36
35952;BME280;22035;51.406;16.194;2022-12-16T07:57:59;99451.26;;;21.40;17.36
35952;BME280;22035;51.406;16.194;2022-12-16T08:00:25;99455.64;;;21.42;17.36
35952;BME280;22035;51.406;16.194;2022-12-16T08:02:52;99452.33;;;21.43;17.35
35952;BME280;22035;51.406;16.194;2022-12-16T08:05:18;99444.09;;;21.46;17.32
35952;BME280;22035;51.406;16.194;2022-12-16T08:07:43;99437.71;;;21.39;17.37
35952;BME280;22035;51.406;16.194;2022-12-16T08:10:09;99441.11;;;21.41;17.35
35952;BME280;22035;51.406;16.194;2022-12-16T08:12:35;99445.05;;;21.39;17.37
35952;BME280;22035;51.406;16.194;2022-12-16T08:15:00;99447.84;;;21.42;17.36
35952;BME280;22035;51.406;16.194;2022-12-16T08:17:26;99451.75;;;21.39;17.39
35952;BME280;22035;51.406;16.194;2022-12-16T08:19:51;99452.41;;;21.39;17.37
35952;BME280;22035;51.406;16.194;2022-12-16T08:22:17;99456.83;;;21.43;17.34
35952;BME280;22035;51.406;16.194;2022-12-16T08:24:43;99461.97;;;21.41;17.36
35952;BME280;22035;51.406;16.194;2022-12-16T08:27:08;99460.08;;;21.46;17.33
35952;BME280;22035;51.406;16.194;2022-12-16T08:29:34;99464.94;;;21.43;17.35
35952;BME280;22035;51.406;16.194;2022-12-16T08:32:00;99473.43;;;21.44;17.35
35952;BME280;22035;51.406;16.194;2022-12-16T08:34:25;99479.95;;;21.47;17.32
35952;BME280;22035;51.406;16.194;2022-12-16T08:36:51;99479.90;;;21.39;17.39
35952;BME280;22035;51.406;16.194;2022-12-16T08:39:16;99481.48;;;21.37;17.41
35952;BME280;22035;51.406;16.194;2022-12-16T08:41:42;99485.69;;;21.44;17.35
35952;BME280;22035;51.406;16.194;2022-12-16T08:44:08;99494.42;;;21.41;17.37
35952;BME280;22035;51.406;16.194;2022-12-16T08:46:34;99492.76;;;21.41;17.38
35952;BME280;22035;51.406;16.194;2022-12-16T08:48:59;99493.42;;;21.43;17.36
35952;BME280;22035;51.406;16.194;2022-12-16T08:51:25;99497.75;;;21.38;17.40
35952;BME280;22035;51.406;16.194;2022-12-16T08:53:51;99497.88;;;21.44;17.36
35952;BME280;22035;51.406;16.194;2022-12-16T08:56:16;99503.49;;;21.44;17.37
35952;BME280;22035;51.406;16.194;2022-12-16T08:58:42;99498.15;;;21.46;17.35
35952;BME280;22035;51.406;16.194;2022-12-16T09:01:07;99504.99;;;21.43;17.37
35952;BME280;22035;51.406;16.194;2022-12-16T09:03:33;99506.16;;;21.41;17.39
35952;BME280;22035;51.406;16.194;2022-12-16T09:05:59;99513.57;;;21.44;17.36
35952;BME280;22035;51.406;16.194;2022-12-16T09:08:25;99509.15;;;21.41;17.38
35952;BME280;22035;51.406;16.194;2022-12-16T09:10:50;99511.34;;;21.42;17.37
35952;BME280;22035;51.406;16.194;2022-12-16T09:13:16;99514.12;;;21.40;17.40
35952;BME280;22035;51.406;16.194;2022-12-16T09:15:41;99514.91;;;21.39;17.41
35952;BME280;22035;51.406;16.194;2022-12-16T09:18:07;99518.12;;;21.43;17.37
35952;BME280;22035;51.406;16.194;2022-12-16T09:20:33;99519.69;;;21.40;17.39
35952;BME280;22035;51.406;16.194;2022-12-16T09:23:00;99524.43;;;21.40;17.40
35952;BME280;22035;51.406;16.194;2022-12-16T09:25:26;99529.70;;;21.47;17.35
35952;BME280;22035;51.406;16.194;2022-12-16T09:27:51;99524.22;;;21.39;17.42
35952;BME280;22035;51.406;16.194;2022-12-16T09:30:17;99523.24;;;21.44;17.37
35952;BME280;22035;51.406;16.194;2022-12-16T09:32:43;99522.55;;;21.44;17.38
35952;BME280;22035;51.406;16.194;2022-12-16T09:35:10;99519.08;;;21.42;17.40
35952;BME280;22035;51.406;16.194;2022-12-16T09:37:35;99517.91;;;21.44;17.38
35952;BME280;22035;51.406;16.194;2022-12-16T09:40:01;99517.36;;;21.40;17.42
35952;BME280;22035;51.406;16.194;2022-12-16T09:42:31;99521.28;;;21.43;17.39
35952;BME280;22035;51.406;16.194;2022-12-16T09:45:07;99526.46;;;21.39;17.43
35952;BME280;22035;51.406;16.194;2022-12-16T09:47:46;99526.70;;;21.44;17.38
35952;BME280;22035;51.406;16.194;2022-12-16T09:50:19;99530.82;;;21.45;17.37
35952;BME280;22035;51.406;16.194;2022-12-16T09:52:49;99528.41;;;21.38;17.43
35952;BME280;22035;51.406;16.194;2022-12-16T09:55:23;99526.02;;;21.43;17.40
35952;BME280;22035;51.406;16.194;2022-12-16T09:57:50;99529.48;;;21.44;17.36
35952;BME280;22035;51.406;16.194;2022-12-16T10:00:19;99525.83;;;21.47;17.36
35952;BME280;22035;51.406;16.194;2022-12-16T10:02:48;99529.21;;;21.43;17.38
35952;BME280;22035;51.406;16.194;2022-12-16T10:05:18;99532.65;;;21.41;17.40
35952;BME280;22035;51.406;16.194;2022-12-16T10:07:52;99534.03;;;21.45;17.38
35952;BME280;22035;51.406;16.194;2022-12-16T10:10:23;99528.16;;;21.46;17.38
35952;BME280;22035;51.406;16.194;2022-12-16T10:12:58;99526.27;;;21.42;17.41
35952;BME280;22035;51.406;16.194;2022-12-16T10:15:34;99523.83;;;21.43;17.39
35952;BME280;22035;51.406;16.194;2022-12-16T10:18:03;99527.74;;;21.43;17.41
35952;BME280;22035;51.406;16.194;2022-12-16T10:20:40;99531.04;;;21.47;17.38
35952;BME280;22035;51.406;16.194;2022-12-16T10:23:14;99527.39;;;21.48;17.37
35952;BME280;22035;51.406;16.194;2022-12-16T10:25:45;99528.67;;;21.44;17.39
35952;BME280;22035;51.406;16.194;2022-12-16T10:28:16;99529.06;;;21.43;17.41
35952;BME280;22035;51.406;16.194;2022-12-16T10:30:42;99528.91;;;21.48;17.38
35952;BME280;22035;51.406;16.194;2022-12-16T10:33:10;99524.23;;;21.44;17.40
35952;BME280;22035;51.406;16.194;2022-12-16T10:35:43;99524.36;;;21.42;17.41
35952;BME280;22035;51.406;16.194;2022-12-16T10:38:16;99530.76;;;21.46;17.40
35952;BME280;22035;51.406;16.194;2022-12-16T10:40:43;99528.34;;;21.47;17.38
35952;BME280;22035;51.406;16.194;2022-12-16T10:43:13;99527.45;;;21.44;17.41
35952;BME280;22035;51.406;16.194;2022-12-16T10:45:44;99530.45;;;21.45;17.40
35952;BME280;22035;51.406;16.194;2022-12-16T10:48:10;99531.90;;;21.39;17.45
35952;BME280;22035;51.406;16.194;2022-12-16T10:50:36;99537.49;;;21.47;17.39
35952;BME280;22035;51.406;16.194;2022-12-16T10:53:04;99539.13;;;21.46;17.41
35952;BME280;22035;51.406;16.194;2022-12-16T10:55:45;99539.51;;;21.47;17.39
35952;BME280;22035;51.406;16.194;2022-12-16T10:58:24;99546.57;;;21.45;17.42
35952;BME280;22035;51.406;16.194;2022-12-16T11:00:53;99541.72;;;21.47;17.39
35952;BME280;22035;51.406;16.194;2022-12-16T11:03:21;99546.77;;;21.47;17.41
35952;BME280;22035;51.406;16.194;2022-12-16T11:05:47;99542.91;;;21.46;17.41
35952;BME280;22035;51.406;16.194;2022-12-16T11:08:23;99540.04;;;21.43;17.44
35952;BME280;22035;51.406;16.194;2022-12-16T11:10:49;99546.13;;;21.48;17.39
35952;BME280;22035;51.406;16.194;2022-12-16T11:13:19;99546.61;;;21.41;17.44
35952;BME280;22035;51.406;16.194;2022-12-16T11:15:45;99549.15;;;21.49;17.37
35952;BME280;22035;51.406;16.194;2022-12-16T11:18:14;99551.98;;;21.50;17.38
35952;BME280;22035;51.406;16.194;2022-12-16T11:20:39;99552.41;;;21.47;17.41
35952;BME280;22035;51.406;16.194;2022-12-16T11:23:08;99546.73;;;21.51;17.37
35952;BME280;22035;51.406;16.194;2022-12-16T11:25:34;99540.04;;;21.54;17.36
35952;BME280;22035;51.406;16.194;2022-12-16T11:28:03;99537.35;;;21.53;17.37
35952;BME280;22035;51.406;16.194;2022-12-16T11:30:29;99541.82;;;21.50;17.38
35952;BME280;22035;51.406;16.194;2022-12-16T11:32:58;99542.07;;;21.50;17.40
35952;BME280;22035;51.406;16.194;2022-12-16T11:35:26;99549.29;;;21.52;17.37
35952;BME280;22035;51.406;16.194;2022-12-16T11:37:54;99548.85;;;21.49;17.40
35952;BME280;22035;51.406;16.194;2022-12-16T11:40:23;99551.76;;;21.50;17.40
35952;BME280;22035;51.406;16.194;2022-12-16T11:42:49;99548.12;;;21.49;17.42
35952;BME280;22035;51.406;16.194;2022-12-16T11:45:17;99548.79;;;21.47;17.45
35952;BME280;22035;51.406;16.194;2022-12-16T11:47:46;99548.37;;;21.50;17.40
35952;BME280;22035;51.406;16.194;2022-12-16T11:50:16;99544.66;;;21.52;17.39
35952;BME280;22035;51.406;16.194;2022-12-16T11:52:51;99547.47;;;21.51;17.41
35952;BME280;22035;51.406;16.194;2022-12-16T11:55:22;99553.75;;;21.50;17.42
35952;BME280;22035;51.406;16.194;2022-12-16T11:57:54;99555.35;;;21.45;17.45
35952;BME280;22035;51.406;16.194;2022-12-16T12:00:22;99568.29;;;21.47;17.45
35952;BME280;22035;51.406;16.194;2022-12-16T12:02:53;99574.62;;;21.50;17.42
35952;BME280;22035;51.406;16.194;2022-12-16T12:05:25;99577.58;;;21.52;17.40
35952;BME280;22035;51.406;16.194;2022-12-16T12:07:56;99581.57;;;21.52;17.41
35952;BME280;22035;51.406;16.194;2022-12-16T12:10:36;99582.36;;;21.49;17.42
35952;BME280;22035;51.406;16.194;2022-12-16T12:13:05;99592.74;;;21.50;17.43
35952;BME280;22035;51.406;16.194;2022-12-16T12:15:40;99600.01;;;21.53;17.41
35952;BME280;22035;51.406;16.194;2022-12-16T12:18:14;99601.11;;;21.49;17.44
35952;BME280;22035;51.406;16.194;2022-12-16T12:20:46;99601.00;;;21.49;17.44
35952;BME280;22035;51.406;16.194;2022-12-16T12:23:20;99599.73;;;21.49;17.45
35952;BME280;22035;51.406;16.194;2022-12-16T12:25:52;99603.84;;;21.52;17.41
35952;BME280;22035;51.406;16.194;2022-12-16T12:28:29;99599.35;;;21.48;17.45
35952;BME280;22035;51.406;16.194;2022-12-16T12:31:01;99596.83;;;21.49;17.45
35952;BME280;22035;51.406;16.194;2022-12-16T12:33:34;99593.91;;;21.51;17.37
35952;BME280;22035;51.406;16.194;2022-12-16T12:36:03;99596.58;;;21.52;17.42
35952;BME280;22035;51.406;16.194;2022-12-16T12:38:41;99595.99;;;21.51;17.42
35952;BME280;22035;51.406;16.194;2022-12-16T12:41:15;99596.56;;;21.46;17.46
35952;BME280;22035;51.406;16.194;2022-12-16T12:43:48;99596.73;;;21.53;17.41
35952;BME280;22035;51.406;16.194;2022-12-16T12:46:24;99597.18;;;21.49;17.44
35952;BME280;22035;51.406;16.194;2022-12-16T12:48:57;99594.54;;;21.52;17.41
35952;BME280;22035;51.406;16.194;2022-12-16T12:51:30;99596.04;;;21.52;17.42
35952;BME280;22035;51.406;16.194;2022-12-16T12:54:06;99599.98;;;21.49;17.47